createdAt,value
2023-01-02T00:01:20.763Z,2.27
2023-01-02T00:03:47.549Z,3.17
2023-01-02T00:06:14.565Z,2.30
2023-01-02T00:08:43.607Z,3.00
2023-01-02T00:11:10.250Z,2.67
2023-01-02T00:13:39.467Z,2.77
2023-01-02T00:16:08.970Z,3.30
2023-01-02T00:18:35.673Z,4.77
2023-01-02T00:21:07.855Z,5.20
2023-01-02T00:23:36.839Z,2.40
2023-01-02T00:26:03.620Z,4.00
2023-01-02T00:28:30.730Z,3.93
2023-01-02T00:31:04.926Z,3.10
2023-01-02T00:33:35.463Z,2.40
2023-01-02T00:36:14.963Z,3.00
2023-01-02T00:38:41.714Z,2.13
2023-01-02T00:41:10.901Z,5.30
2023-01-02T00:43:37.985Z,4.07
2023-01-02T00:46:12.188Z,2.63
2023-01-02T00:48:42.001Z,2.43
2023-01-02T00:51:08.795Z,2.53
2023-01-02T00:53:35.632Z,2.83
2023-01-02T00:56:04.700Z,2.63
2023-01-02T00:58:31.383Z,3.10
2023-01-02T01:01:02.792Z,3.60
2023-01-02T01:03:29.916Z,2.13
2023-01-02T01:05:56.650Z,2.40
2023-01-02T01:08:25.641Z,4.00
2023-01-02T01:10:54.481Z,2.40
2023-01-02T01:13:23.728Z,3.38
2023-01-02T01:15:50.755Z,2.23
2023-01-02T01:18:17.453Z,3.40
2023-01-02T01:20:44.121Z,2.33
2023-01-02T01:23:10.842Z,4.10
2023-01-02T01:25:37.809Z,2.43
2023-01-02T01:28:04.566Z,2.90
2023-01-02T01:30:34.050Z,3.08
2023-01-02T01:33:00.694Z,5.23
2023-01-02T01:35:27.361Z,3.17
2023-01-02T01:37:54.050Z,2.43
2023-01-02T01:40:20.694Z,2.53
2023-01-02T01:42:50.244Z,4.70
2023-01-02T01:45:18.645Z,4.43
2023-01-02T01:47:54.887Z,3.20
2023-01-02T01:50:32.911Z,2.70
2023-01-02T01:53:13.602Z,2.70
2023-01-02T01:55:57.132Z,2.40
2023-01-02T01:58:30.561Z,3.90
2023-01-02T02:00:57.440Z,2.83
2023-01-02T02:03:30.191Z,3.53
2023-01-02T02:06:01.177Z,5.17
2023-01-02T02:08:55.110Z,2.10
2023-01-02T02:11:26.765Z,3.50
2023-01-02T02:13:59.664Z,2.50
2023-01-02T02:16:34.502Z,3.87
2023-01-02T02:19:19.562Z,2.00
2023-01-02T02:21:55.176Z,2.30
2023-01-02T02:24:44.851Z,4.13
2023-01-02T02:27:38.826Z,3.17
2023-01-02T02:30:21.595Z,2.20
2023-01-02T02:33:22.983Z,3.27
2023-01-02T02:36:22.740Z,3.83
2023-01-02T02:39:19.566Z,3.40
2023-01-02T02:42:21.751Z,3.83
2023-01-02T02:45:06.835Z,2.10
2023-01-02T02:47:38.524Z,2.60
2023-01-02T02:50:17.193Z,2.53
2023-01-02T02:53:24.118Z,2.90
2023-01-02T02:55:59.853Z,2.40
2023-01-02T02:58:28.767Z,2.23
2023-01-02T03:01:08.661Z,2.30
2023-01-02T03:03:37.893Z,3.33
2023-01-02T03:06:16.683Z,3.17
2023-01-02T03:09:08.109Z,3.10
2023-01-02T03:12:09.111Z,2.50
2023-01-02T03:15:05.553Z,2.23
2023-01-02T03:17:58.357Z,3.20
2023-01-02T03:20:30.230Z,2.47
2023-01-02T03:23:04.417Z,2.37
2023-01-02T03:25:34.248Z,2.30
2023-01-02T03:28:03.054Z,2.63
2023-01-02T03:30:32.103Z,3.83
2023-01-02T03:33:08.864Z,2.47
2023-01-02T03:35:42.410Z,2.07
2023-01-02T03:38:13.206Z,2.97
2023-01-02T03:40:45.775Z,3.10
2023-01-02T03:43:30.207Z,3.40
2023-01-02T03:46:15.941Z,2.17
2023-01-02T03:48:53.120Z,3.90
2023-01-02T03:51:20.043Z,2.30
2023-01-02T03:53:50.781Z,3.15
2023-01-02T03:56:44.984Z,3.30
2023-01-02T03:59:13.733Z,1.80
2023-01-02T04:02:05.273Z,5.07
2023-01-02T04:04:53.594Z,2.80
2023-01-02T04:07:55.893Z,4.43
2023-01-02T04:10:23.888Z,1.70
2023-01-02T04:12:55.199Z,1.87
2023-01-02T04:15:25.981Z,2.13
2023-01-02T04:18:01.386Z,3.40
2023-01-02T04:20:34.459Z,2.17
2023-01-02T04:23:23.763Z,2.83
2023-01-02T04:26:01.498Z,2.30
2023-01-02T04:28:33.316Z,1.80
2023-01-02T04:31:25.455Z,2.23
2023-01-02T04:33:57.158Z,1.83
2023-01-02T04:36:24.251Z,5.93
2023-01-02T04:38:53.366Z,2.90
2023-01-02T04:41:29.632Z,3.93
2023-01-02T04:43:57.194Z,4.53
2023-01-02T04:46:28.042Z,2.93
2023-01-02T04:48:55.614Z,4.10
2023-01-02T04:51:25.296Z,4.53
2023-01-02T04:53:53.197Z,2.33
2023-01-02T04:56:20.870Z,1.57
2023-01-02T04:58:50.491Z,1.77
2023-01-02T05:01:22.050Z,2.23
2023-01-02T05:03:52.570Z,2.30
2023-01-02T05:06:22.692Z,2.80
2023-01-02T05:08:49.347Z,2.77
2023-01-02T05:11:18.586Z,2.30
2023-01-02T05:13:47.961Z,1.90
2023-01-02T05:16:19.699Z,2.33
2023-01-02T05:18:46.478Z,3.63
2023-01-02T05:21:32.877Z,2.90
2023-01-02T05:24:05.127Z,2.27
2023-01-02T05:26:34.054Z,2.80
2023-01-02T05:29:01.629Z,2.93
2023-01-02T05:31:31.111Z,3.35
2023-01-02T05:33:59.052Z,2.07
2023-01-02T05:36:26.812Z,3.00
2023-01-02T05:38:53.798Z,2.27
2023-01-02T05:41:21.491Z,1.60
2023-01-02T05:43:48.272Z,2.30
2023-01-02T05:46:22.640Z,1.60
2023-01-02T05:48:49.344Z,2.85
2023-01-02T05:51:17.619Z,1.67
2023-01-02T05:53:44.907Z,2.70
2023-01-02T05:56:18.691Z,3.57
2023-01-02T05:58:47.149Z,2.23
2023-01-02T06:01:22.551Z,2.10
2023-01-02T06:03:56.539Z,4.50
2023-01-02T06:06:26.349Z,3.27
2023-01-02T06:08:53.256Z,1.90
2023-01-02T06:11:19.931Z,1.90
2023-01-02T06:13:50.921Z,3.07
2023-01-02T06:16:20.062Z,2.60
2023-01-02T06:18:52.406Z,2.13
2023-01-02T06:21:21.123Z,1.60
2023-01-02T06:23:56.187Z,2.30
2023-01-02T06:26:32.793Z,2.73
2023-01-02T06:29:04.147Z,2.78
2023-01-02T06:31:33.230Z,1.73
2023-01-02T06:34:01.418Z,3.80
2023-01-02T06:36:34.499Z,3.17
2023-01-02T06:39:03.688Z,3.60
2023-01-02T06:41:30.622Z,2.10
2023-01-02T06:43:57.283Z,1.97
2023-01-02T06:46:24.319Z,4.77
2023-01-02T06:48:53.398Z,1.80
2023-01-02T06:51:22.348Z,2.70
2023-01-02T06:53:51.496Z,2.00
2023-01-02T06:56:21.591Z,1.93
2023-01-02T06:58:50.576Z,1.77
2023-01-02T07:01:20.275Z,1.67
2023-01-02T07:03:47.141Z,2.20
2023-01-02T07:06:16.564Z,1.70
2023-01-02T07:08:44.106Z,3.73
2023-01-02T07:11:18.183Z,2.70
2023-01-02T07:13:46.353Z,1.50
2023-01-02T07:16:18.176Z,3.87
2023-01-02T07:18:47.617Z,2.43
2023-01-02T07:21:16.090Z,2.77
2023-01-02T07:23:42.835Z,2.43
2023-01-02T07:26:10.196Z,2.53
2023-01-02T07:28:37.459Z,3.50
2023-01-02T07:31:09.589Z,1.87
2023-01-02T07:33:36.491Z,2.27
2023-01-02T07:36:06.474Z,4.03
2023-01-02T07:38:33.664Z,1.87
2023-01-02T07:41:00.618Z,1.70
2023-01-02T07:43:30.185Z,3.87
2023-01-02T07:46:05.797Z,2.07
2023-01-02T07:48:32.641Z,1.75
2023-01-02T07:51:03.753Z,2.97
2023-01-02T07:53:33.119Z,1.70
2023-01-02T07:56:03.202Z,1.97
2023-01-02T07:58:30.527Z,3.43
2023-01-02T08:01:04.891Z,3.63
2023-01-02T08:03:32.722Z,3.20
2023-01-02T08:06:04.705Z,1.70
2023-01-02T08:08:34.937Z,5.90
2023-01-02T08:11:10.283Z,1.73
2023-01-02T08:13:39.747Z,2.67
2023-01-02T08:16:15.359Z,1.67
2023-01-02T08:18:42.610Z,3.00
2023-01-02T08:21:09.681Z,1.77
2023-01-02T08:23:37.003Z,3.40
2023-01-02T08:26:06.920Z,4.27
2023-01-02T08:28:37.511Z,2.13
2023-01-02T08:31:15.687Z,4.37
2023-01-02T08:33:45.484Z,2.00
2023-01-02T08:36:12.694Z,1.70
2023-01-02T08:38:39.388Z,2.00
2023-01-02T08:41:08.978Z,1.53
2023-01-02T08:43:38.670Z,1.60
2023-01-02T08:46:06.948Z,2.53
2023-01-02T08:48:36.472Z,3.47
2023-01-02T08:51:06.775Z,1.73
2023-01-02T08:53:33.522Z,2.70
2023-01-02T08:56:23.005Z,5.23
2023-01-02T08:59:12.354Z,2.53
2023-01-02T09:01:41.991Z,2.33
2023-01-02T09:04:13.178Z,5.10
2023-01-02T09:06:43.506Z,3.10
2023-01-02T09:09:14.166Z,2.83
2023-01-02T09:11:52.074Z,3.20
2023-01-02T09:14:20.634Z,3.20
2023-01-02T09:16:50.496Z,3.63
2023-01-02T09:19:19.685Z,3.70
2023-01-02T09:21:48.572Z,4.63
2023-01-02T09:24:17.525Z,4.73
2023-01-02T09:26:44.521Z,5.47
2023-01-02T09:29:15.076Z,5.43
2023-01-02T09:31:42.235Z,7.00
2023-01-02T09:34:09.081Z,5.43
2023-01-02T09:36:35.723Z,6.60
2023-01-02T09:39:02.553Z,7.47
2023-01-02T09:41:44.783Z,8.37
2023-01-02T09:44:15.886Z,11.70
2023-01-02T09:47:06.623Z,13.80
2023-01-02T09:49:42.201Z,23.13
2023-01-02T09:52:20.041Z,27.83
2023-01-02T09:54:49.055Z,28.90
2023-01-02T09:57:28.043Z,27.80
2023-01-02T09:59:57.648Z,22.60
2023-01-02T10:02:42.989Z,23.53
2023-01-02T10:05:40.723Z,21.80
2023-01-02T10:08:32.314Z,23.53
2023-01-02T10:11:33.121Z,19.40
2023-01-02T10:14:20.345Z,19.45
2023-01-02T10:16:54.915Z,20.37
2023-01-02T10:19:46.833Z,18.73
2023-01-02T10:22:19.154Z,17.37
2023-01-02T10:25:28.057Z,20.73
2023-01-02T10:28:02.417Z,13.20
2023-01-02T10:30:36.126Z,14.60
2023-01-02T10:33:09.142Z,13.40
2023-01-02T10:35:50.989Z,14.97
2023-01-02T10:38:19.715Z,15.37
2023-01-02T10:40:48.442Z,13.53
2023-01-02T10:43:16.682Z,12.57
2023-01-02T10:45:43.648Z,14.27
2023-01-02T10:48:13.975Z,12.47
2023-01-02T10:50:48.755Z,11.70
2023-01-02T10:53:37.342Z,15.10
2023-01-02T10:56:16.779Z,11.50
2023-01-02T10:58:51.596Z,9.77
2023-01-02T11:01:21.097Z,10.97
2023-01-02T11:03:59.580Z,10.97
2023-01-02T11:06:39.498Z,10.33
2023-01-02T11:09:26.267Z,10.27
2023-01-02T11:12:09.019Z,11.40
2023-01-02T11:14:39.326Z,11.73
2023-01-02T11:17:05.990Z,9.17
2023-01-02T11:19:50.066Z,10.37
2023-01-02T11:22:22.030Z,9.98
2023-01-02T11:25:01.892Z,8.13
2023-01-02T11:27:43.372Z,9.27
2023-01-02T11:30:31.499Z,8.90
2023-01-02T11:33:14.676Z,11.53
2023-01-02T11:35:50.302Z,9.10
2023-01-02T11:38:30.105Z,7.80
2023-01-02T11:40:58.783Z,9.57
2023-01-02T11:43:49.447Z,9.03
2023-01-02T11:46:41.264Z,7.73
2023-01-02T11:49:18.370Z,7.07
2023-01-02T11:51:53.640Z,10.05
2023-01-02T11:54:25.176Z,10.20
2023-01-02T11:56:54.387Z,9.17
2023-01-02T11:59:40.785Z,7.37
2023-01-02T12:02:17.963Z,9.53
2023-01-02T12:04:46.863Z,7.13
2023-01-02T12:07:51.079Z,5.80
2023-01-02T12:10:22.987Z,10.03
2023-01-02T12:13:04.648Z,10.00
2023-01-02T12:16:03.252Z,5.53
2023-01-02T12:18:29.848Z,5.73
2023-01-02T12:21:24.504Z,6.93
2023-01-02T12:24:16.417Z,6.13
2023-01-02T12:27:35.145Z,7.70
2023-01-02T12:30:11.832Z,8.63
2023-01-02T12:32:39.089Z,8.10
2023-01-02T12:35:22.580Z,7.25
2023-01-02T12:37:54.681Z,6.33
2023-01-02T12:40:44.459Z,4.63
2023-01-02T12:43:34.901Z,7.10
2023-01-02T12:46:23.381Z,10.33
2023-01-02T12:48:52.716Z,8.45
2023-01-02T12:51:36.007Z,13.17
2023-01-02T12:54:26.609Z,7.37
2023-01-02T12:57:10.805Z,7.17
2023-01-02T12:59:43.547Z,6.60
2023-01-02T13:02:34.721Z,7.28
2023-01-02T13:05:08.693Z,7.27
2023-01-02T13:07:46.838Z,5.43
2023-01-02T13:10:24.472Z,7.20
2023-01-02T13:12:54.902Z,3.97
2023-01-02T13:15:28.539Z,9.05
2023-01-02T13:18:21.553Z,6.53
2023-01-02T13:20:52.747Z,9.13
2023-01-02T13:23:44.336Z,5.73
2023-01-02T13:26:16.516Z,8.73
2023-01-02T13:28:53.377Z,8.37
2023-01-02T13:31:46.128Z,6.97
2023-01-02T13:34:22.703Z,5.23
2023-01-02T13:36:57.339Z,5.50
2023-01-02T13:39:42.511Z,5.33
2023-01-02T13:42:40.296Z,6.40
2023-01-02T13:45:37.568Z,6.63
2023-01-02T13:48:34.921Z,8.20
2023-01-02T13:51:30.204Z,8.80
2023-01-02T13:53:56.911Z,7.13
2023-01-02T13:56:30.644Z,7.53
2023-01-02T13:58:57.591Z,7.93
2023-01-02T14:01:24.617Z,7.10
2023-01-02T14:04:12.536Z,12.63
2023-01-02T14:06:50.018Z,12.27
2023-01-02T14:09:23.843Z,7.23
2023-01-02T14:12:03.067Z,8.43
2023-01-02T14:14:46.821Z,6.30
2023-01-02T14:17:36.890Z,8.00
2023-01-02T14:20:20.880Z,13.60
2023-01-02T14:23:04.282Z,18.43
2023-01-02T14:25:34.579Z,13.37
2023-01-02T14:28:04.537Z,23.57
2023-01-02T14:30:36.356Z,10.40
2023-01-02T14:33:08.298Z,12.47
2023-01-02T14:35:51.691Z,5.97
2023-01-02T14:38:23.279Z,13.17
2023-01-02T14:40:50.487Z,8.17
2023-01-02T14:43:32.852Z,7.40
2023-01-02T14:46:14.420Z,6.80
2023-01-02T14:49:26.269Z,7.03
2023-01-02T14:52:03.652Z,10.93
2023-01-02T14:54:39.917Z,7.13
2023-01-02T14:57:25.705Z,8.23
2023-01-02T14:59:54.533Z,6.63
2023-01-02T15:02:37.915Z,6.50
2023-01-02T15:05:09.751Z,8.23
2023-01-02T15:07:48.748Z,9.17
2023-01-02T15:10:15.445Z,6.57
2023-01-02T15:13:04.906Z,12.53
2023-01-02T15:15:42.027Z,10.30
2023-01-02T15:18:16.959Z,6.70
2023-01-02T15:20:48.565Z,9.27
2023-01-02T15:23:21.251Z,14.20
2023-01-02T15:25:50.913Z,14.87
2023-01-02T15:28:29.853Z,10.87
2023-01-02T15:31:02.579Z,10.93
2023-01-02T15:33:33.943Z,10.93
2023-01-02T15:36:08.204Z,17.93
2023-01-02T15:38:35.244Z,16.17
2023-01-02T15:41:02.513Z,12.30
2023-01-02T15:43:52.036Z,12.30
2023-01-02T15:46:19.262Z,12.13
2023-01-02T15:48:49.073Z,16.27
2023-01-02T15:51:20.659Z,12.90
2023-01-02T15:54:13.917Z,14.30
2023-01-02T15:56:41.548Z,12.13
2023-01-02T15:59:29.157Z,11.70
2023-01-02T16:01:58.680Z,11.00
2023-01-02T16:04:30.699Z,10.27
2023-01-02T16:06:59.328Z,11.93
2023-01-02T16:09:33.616Z,10.80
2023-01-02T16:12:06.636Z,15.05
2023-01-02T16:14:38.608Z,7.20
2023-01-02T16:17:16.477Z,8.80
2023-01-02T16:19:57.918Z,11.47
2023-01-02T16:22:48.877Z,9.50
2023-01-02T16:25:20.417Z,9.23
2023-01-02T16:28:05.174Z,9.63
2023-01-02T16:31:08.362Z,6.20
2023-01-02T16:33:35.202Z,10.93
2023-01-02T16:36:04.967Z,8.83
2023-01-02T16:38:46.741Z,8.40
2023-01-02T16:41:45.710Z,9.03
2023-01-02T16:44:20.113Z,7.77
2023-01-02T16:46:51.804Z,9.30
2023-01-02T16:49:23.359Z,11.53
2023-01-02T16:51:54.257Z,6.83
2023-01-02T16:54:21.148Z,12.40
2023-01-02T16:56:51.166Z,6.57
2023-01-02T16:59:21.862Z,12.53
2023-01-02T17:01:48.671Z,10.03
2023-01-02T17:04:15.668Z,9.97
2023-01-02T17:06:42.404Z,6.37
2023-01-02T17:09:11.439Z,11.20
2023-01-02T17:11:59.837Z,10.67
2023-01-02T17:14:36.845Z,8.83
2023-01-02T17:17:06.451Z,8.67
2023-01-02T17:19:38.009Z,7.37
2023-01-02T17:22:07.178Z,9.15
2023-01-02T17:24:36.226Z,5.13
2023-01-02T17:27:05.085Z,7.63
2023-01-02T17:29:34.223Z,7.17
2023-01-02T17:32:06.317Z,7.47
2023-01-02T17:34:33.290Z,9.07
2023-01-02T17:37:00.067Z,7.57
2023-01-02T17:39:26.810Z,5.77
2023-01-02T17:41:55.690Z,7.93
2023-01-02T17:44:22.410Z,5.57
2023-01-02T17:47:23.102Z,7.40
2023-01-02T17:49:40.073Z,8.53
2023-01-02T17:52:09.256Z,6.80
2023-01-02T17:54:38.747Z,5.27
2023-01-02T17:57:06.210Z,6.13
2023-01-02T17:59:34.110Z,6.23
2023-01-02T18:02:05.872Z,6.60
2023-01-02T18:04:37.077Z,4.77
2023-01-02T18:07:06.809Z,9.83
2023-01-02T18:09:36.040Z,4.73
2023-01-02T18:12:05.335Z,7.00
2023-01-02T18:14:31.983Z,9.17
2023-01-02T18:17:05.085Z,6.72
2023-01-02T18:19:37.578Z,8.13
2023-01-02T18:22:24.624Z,9.10
2023-01-02T18:24:52.211Z,8.87
2023-01-02T18:27:34.855Z,8.47
2023-01-02T18:30:12.582Z,5.23
2023-01-02T18:32:44.627Z,7.27
2023-01-02T18:38:21.680Z,6.27
2023-01-02T18:40:51.398Z,6.00
2023-01-02T18:43:31.418Z,5.00
2023-01-02T18:46:00.442Z,4.43
2023-01-02T18:48:27.596Z,5.00
2023-01-02T18:51:13.890Z,6.80
2023-01-02T18:53:52.141Z,5.07
2023-01-02T18:56:26.893Z,5.30
2023-01-02T18:59:01.898Z,5.23
2023-01-02T19:01:38.028Z,7.90
2023-01-02T19:04:27.298Z,7.73
2023-01-02T19:06:57.683Z,4.53
2023-01-02T19:09:38.206Z,4.60
2023-01-02T19:12:45.343Z,4.20
2023-01-02T19:15:31.858Z,5.37
2023-01-02T19:18:15.675Z,4.00
2023-01-02T19:20:44.115Z,5.03
2023-01-02T19:23:28.999Z,5.30
2023-01-02T19:25:59.293Z,5.03
2023-01-02T19:28:30.756Z,3.93
2023-01-02T19:30:57.880Z,4.43
2023-01-02T19:33:41.001Z,5.37
2023-01-02T19:36:22.465Z,5.33
2023-01-02T19:38:50.818Z,4.20
2023-01-02T19:41:39.966Z,4.07
2023-01-02T19:44:06.715Z,4.53
2023-01-02T19:46:35.885Z,3.63
2023-01-02T19:49:04.880Z,3.73
2023-01-02T19:51:32.236Z,3.13
2023-01-02T19:54:03.965Z,3.73
2023-01-02T19:56:33.769Z,5.33
2023-01-02T19:59:00.829Z,3.57
2023-01-02T20:01:27.716Z,2.63
2023-01-02T20:03:54.511Z,2.50
2023-01-02T20:06:21.190Z,2.73
2023-01-02T20:08:51.164Z,3.00
2023-01-02T20:11:36.568Z,3.17
2023-01-02T20:14:08.132Z,3.90
2023-01-02T20:16:35.176Z,3.50
2023-01-02T20:19:04.579Z,3.00
2023-01-02T20:21:33.421Z,3.20
2023-01-02T20:24:01.257Z,4.13
2023-01-02T20:26:30.650Z,2.83
2023-01-02T20:28:59.495Z,2.53
2023-01-02T20:31:28.348Z,3.57
2023-01-02T20:33:55.771Z,2.70
2023-01-02T20:36:24.850Z,2.60
2023-01-02T20:38:53.657Z,2.70
2023-01-02T20:41:25.485Z,2.97
2023-01-02T20:43:54.728Z,3.27
2023-01-02T20:46:21.468Z,3.20
2023-01-02T20:48:49.362Z,2.90
2023-01-02T20:51:20.951Z,4.10
2023-01-02T20:53:47.656Z,2.60
2023-01-02T20:56:16.704Z,3.47
2023-01-02T20:58:45.899Z,2.57
2023-01-02T21:01:17.488Z,2.63
2023-01-02T21:03:46.737Z,2.70
2023-01-02T21:06:14.165Z,2.87
2023-01-02T21:08:43.451Z,3.70
2023-01-02T21:11:10.252Z,2.30
2023-01-02T21:13:37.081Z,2.20
2023-01-02T21:16:03.910Z,2.37
2023-01-02T21:18:33.216Z,2.03
2023-01-02T21:21:05.722Z,4.10
2023-01-02T21:23:35.319Z,2.57
2023-01-02T21:26:05.088Z,2.40
2023-01-02T21:28:32.110Z,2.00
2023-01-02T21:31:01.924Z,2.43
2023-01-02T21:33:29.819Z,2.40
2023-01-02T21:35:58.897Z,1.90
2023-01-02T21:38:28.892Z,2.13
2023-01-02T21:41:16.875Z,1.70
2023-01-02T21:43:43.698Z,1.90
2023-01-02T21:46:12.880Z,1.80
2023-01-02T21:48:39.899Z,1.73
2023-01-02T21:51:07.386Z,1.80
2023-01-02T21:53:34.741Z,4.23
2023-01-02T21:56:01.490Z,1.80
2023-01-02T21:58:30.467Z,2.27
2023-01-02T22:00:57.270Z,1.70
2023-01-02T22:03:28.510Z,2.30
2023-01-02T22:05:55.185Z,1.87
2023-01-02T22:08:23.971Z,2.60
2023-01-02T22:11:12.883Z,1.87
2023-01-02T22:13:39.575Z,2.40
2023-01-02T22:16:06.457Z,1.67
2023-01-02T22:18:38.233Z,1.88
2023-01-02T22:21:07.847Z,1.70
2023-01-02T22:23:34.543Z,1.90
2023-01-02T22:26:04.142Z,1.47
2023-01-02T22:28:33.458Z,1.77
2023-01-02T22:31:00.161Z,1.53
2023-01-02T22:33:26.869Z,1.67
2023-01-02T22:35:53.551Z,1.20
2023-01-02T22:38:20.230Z,1.50
2023-01-02T22:40:49.459Z,1.47
2023-01-02T22:43:24.399Z,2.03
2023-01-02T22:45:53.329Z,1.42
2023-01-02T22:48:33.602Z,1.77
2023-01-02T22:51:01.764Z,1.40
2023-01-02T22:53:31.951Z,1.37
2023-01-02T22:56:02.150Z,1.83
2023-01-02T22:58:28.912Z,1.30
2023-01-02T23:01:04.458Z,0.83
2023-01-02T23:03:40.202Z,2.03
2023-01-02T23:06:06.929Z,1.20
2023-01-02T23:08:33.881Z,2.83
2023-01-02T23:11:03.267Z,1.37
2023-01-02T23:13:32.331Z,0.93
2023-01-02T23:16:17.662Z,1.20
2023-01-02T23:19:02.994Z,1.70
2023-01-02T23:21:36.218Z,1.20
2023-01-02T23:24:04.129Z,1.93
2023-01-02T23:26:35.955Z,1.30
2023-01-02T23:29:07.618Z,0.90
2023-01-02T23:31:39.748Z,1.33
2023-01-02T23:34:09.571Z,1.13
2023-01-02T23:36:39.553Z,0.97
2023-01-02T23:39:09.023Z,1.50
2023-01-02T23:41:38.101Z,0.90
2023-01-02T23:44:08.054Z,1.20
2023-01-02T23:46:40.625Z,0.80
2023-01-02T23:49:10.568Z,0.90
2023-01-02T23:51:45.332Z,0.97
2023-01-02T23:54:14.971Z,2.77
2023-01-02T23:56:44.421Z,1.77
2023-01-02T23:59:13.666Z,0.83
